Terminal Aerodrome Forecast
Issued by NWS Charleston, WV

Current Version | Previous Version | Graphics & Text | Print | Product List | Glossary On
Versions: 1 2 3 4 5 6 7 8 9 10 11 12 13 14 15 16 17 18 19 20 21 22 23 24
930
FTUS41 KRLX 291120
TAFHTS
TAF
KHTS 291120Z 2912/3012 VRB03KT 3SM BR OVC030
      TEMPO 2912/2914 1SM BR SCT002
     FM291400 35004KT P6SM BKN030
     FM291600 36004KT P6SM SHRA VCTS BKN035CB
     FM292200 34004KT P6SM SHRA OVC035
     FM300200 VRB03KT P6SM BKN025
     FM300600 00000KT 3SM BR BKN004=

USA.gov is the U.S. government's official web portal to all federal, state and local government web resources and services.